Time;durP1;ratioP1;P1;durP2;ratioP2;P2;SDS_P1;SDS_P2;PMS_P1;PMS_P2;Temp;Humidity;BMP_temperature;BMP_pressure;BME280_temperature;BME280_humidity;BME280_pressure;Samples;Min_cycle;Max_cycle;Signal;HPM_P1;HPM_P2
2022/09/23 00:00:26;;;;;;;14.90;9.20;;;;;;;-145.18;100.00;46668.22;6212150;23;20011;-73
2022/09/23 00:02:52;;;;;;;11.57;8.43;;;;;;;-145.18;100.00;46676.03;6211819;23;20031;-73
2022/09/23 00:05:17;;;;;;;14.10;8.77;;;;;;;-145.18;100.00;46668.22;6212266;23;20012;-73
2022/09/23 00:07:43;;;;;;;13.63;9.70;;;;;;;-145.18;100.00;46670.16;6212011;23;20009;-73
2022/09/23 00:10:09;;;;;;;13.10;9.10;;;;;;;-145.18;100.00;46666.25;6212248;23;20000;-73
2022/09/23 00:12:34;;;;;;;19.20;9.97;;;;;;;-145.18;100.00;46670.16;6211665;23;20012;-73
2022/09/23 00:15:00;;;;;;;16.13;9.50;;;;;;;-145.18;100.00;46668.22;6212451;23;20009;-73
2022/09/23 00:17:26;;;;;;;14.67;10.03;;;;;;;-145.18;100.00;46670.16;6211894;23;20016;-73
2022/09/23 00:19:53;;;;;;;17.00;9.50;;;;;;;-145.18;100.00;46674.06;6212429;23;20329;-73
2022/09/23 00:22:18;;;;;;;15.63;9.80;;;;;;;-145.18;100.00;46664.31;6211697;23;20012;-73
2022/09/23 00:24:43;;;;;;;12.53;8.93;;;;;;;-145.18;100.00;46668.22;6212175;23;20021;-73
2022/09/23 00:27:09;;;;;;;14.73;8.90;;;;;;;-145.18;100.00;46677.97;6211981;23;20139;-73
2022/09/23 00:29:35;;;;;;;14.57;9.47;;;;;;;-145.18;100.00;46672.13;6211975;23;20411;-73
2022/09/23 00:32:01;;;;;;;14.47;9.67;;;;;;;-145.18;100.00;46668.22;6211951;23;20027;-73
2022/09/23 00:34:28;;;;;;;16.00;8.80;;;;;;;-145.18;100.00;46672.13;6212415;23;20343;-73
2022/09/23 00:36:55;;;;;;;15.23;9.40;;;;;;;-145.18;100.00;46674.06;6213902;23;20242;-73
2022/09/23 00:39:21;;;;;;;14.23;8.80;;;;;;;-145.18;100.00;46672.13;6213771;23;20575;-73
2022/09/23 00:41:46;;;;;;;14.30;9.10;;;;;;;-145.18;100.00;46677.97;6213209;23;20015;-73
2022/09/23 00:44:39;;;;;;;13.73;9.03;;;;;;;-145.18;100.00;46679.94;6214076;23;20019;-73
2022/09/23 00:47:13;;;;;;;15.67;8.57;;;;;;;-145.18;100.00;46676.03;6213669;23;20009;-73
2022/09/23 00:49:39;;;;;;;12.37;8.77;;;;;;;-145.18;100.00;46679.94;6213839;23;20341;-72
2022/09/23 00:52:11;;;;;;;12.50;8.87;;;;;;;-145.18;100.00;46676.03;6213569;23;20282;-73
2022/09/23 00:54:36;;;;;;;12.07;9.30;;;;;;;-145.18;100.00;46672.13;6213910;23;20028;-73
2022/09/23 00:57:04;;;;;;;14.97;9.57;;;;;;;-145.18;100.00;46672.13;6213428;23;20544;-72
2022/09/23 00:59:29;;;;;;;13.50;8.90;;;;;;;-145.18;100.00;46670.16;6214051;23;20365;-73
2022/09/23 01:01:57;;;;;;;16.03;8.93;;;;;;;-145.18;100.00;46676.03;6213250;23;20329;-73
2022/09/23 01:04:25;;;;;;;14.93;10.03;;;;;;;-145.18;100.00;46672.13;6213228;23;20381;-73
2022/09/23 01:06:51;;;;;;;14.20;9.57;;;;;;;-145.18;100.00;46677.97;6213286;23;20009;-73
2022/09/23 01:09:17;;;;;;;13.17;9.03;;;;;;;-145.18;100.00;46677.97;6213409;23;20241;-73
2022/09/23 01:12:21;;;;;;;13.53;8.90;;;;;;;-145.18;100.00;46674.06;6213035;23;20099;-73
2022/09/23 01:15:02;;;;;;;15.20;8.17;;;;;;;-145.18;100.00;46677.97;6200415;23;20317;-73
2022/09/23 01:17:47;;;;;;;12.67;8.97;;;;;;;-145.18;100.00;46672.13;6213016;23;20236;-73
2022/09/23 01:20:15;;;;;;;15.40;8.98;;;;;;;-145.18;100.00;46670.16;6213633;23;20238;-73
2022/09/23 01:22:49;;;;;;;12.87;8.80;;;;;;;-145.18;100.00;46670.16;6212640;23;20005;-73
2022/09/23 01:25:34;;;;;;;14.83;8.80;;;;;;;-145.18;100.00;46666.25;6213796;23;20032;-73
2022/09/23 01:28:24;;;;;;;14.63;9.60;;;;;;;-145.18;100.00;46672.13;6213322;23;20230;-73
2022/09/23 01:31:05;;;;;;;13.83;9.30;;;;;;;-145.18;100.00;46672.13;6213445;23;20218;-73
2022/09/23 01:33:38;;;;;;;15.33;9.63;;;;;;;-145.18;100.00;46666.25;6212884;23;20008;-73
2022/09/23 01:36:09;;;;;;;13.23;9.10;;;;;;;-145.18;100.00;46674.06;6213322;23;20218;-73
2022/09/23 01:38:39;;;;;;;14.73;10.10;;;;;;;-145.18;100.00;46668.22;6213151;23;20249;-73
2022/09/23 01:41:27;;;;;;;13.80;9.00;;;;;;;-145.18;100.00;46668.22;6213548;23;20301;-73
2022/09/23 01:43:58;;;;;;;13.40;8.60;;;;;;;-145.18;100.00;46670.16;6213073;23;20305;-72
2022/09/23 01:46:47;;;;;;;12.63;9.40;;;;;;;-145.18;100.00;46670.16;6211236;23;20604;-73
2022/09/23 01:49:18;;;;;;;13.07;8.90;;;;;;;-145.18;100.00;46666.25;6213468;23;20003;-72
2022/09/23 01:52:00;;;;;;;15.47;9.37;;;;;;;-145.18;100.00;46664.31;6212981;23;20324;-73
2022/09/23 01:54:50;;;;;;;14.93;10.87;;;;;;;-145.18;100.00;46670.16;6212974;23;20226;-72
2022/09/23 01:57:26;;;;;;;15.90;10.30;;;;;;;-145.18;100.00;46662.34;6212826;23;20222;-73
2022/09/23 01:59:55;;;;;;;;;;;;;;;-145.18;100.00;46664.31;6213934;23;20245;-73
2022/09/23 02:02:34;;;;;;;18.93;10.77;;;;;;;-145.18;100.00;46668.22;6159754;23;20586;-73
2022/09/23 02:05:14;;;;;;;19.37;11.07;;;;;;;-145.18;100.00;46658.44;6236565;22;20739;-73
2022/09/23 02:07:50;;;;;;;12.33;9.63;;;;;;;-145.18;100.00;46660.41;6242636;22;20268;-73
2022/09/23 02:10:24;;;;;;;15.47;9.93;;;;;;;-145.18;100.00;46666.25;6242682;22;20300;-72
2022/09/23 02:12:53;;;;;;;15.63;9.80;;;;;;;-145.18;100.00;46662.34;6242927;22;20253;-72
2022/09/23 02:15:25;;;;;;;13.80;9.37;;;;;;;-145.18;100.00;46664.31;6243583;22;20222;-72
2022/09/23 02:17:57;;;;;;;13.60;9.27;;;;;;;-145.18;100.00;46662.34;6243156;22;20218;-72
2022/09/23 02:20:32;;;;;;;15.57;9.97;;;;;;;-145.18;100.00;46666.25;6243565;22;20321;-72
2022/09/23 02:23:12;;;;;;;16.87;11.10;;;;;;;-145.18;100.00;46660.41;6243052;22;20229;-73
2022/09/23 02:26:07;;;;;;;15.53;10.53;;;;;;;-145.18;100.00;46660.41;6243657;22;20222;-72
2022/09/23 02:28:57;;;;;;;17.57;10.30;;;;;;;-145.18;100.00;46668.22;6242737;22;20222;-72
2022/09/23 02:31:52;;;;;;;15.63;10.67;;;;;;;-145.18;100.00;46656.50;6243300;22;20249;-71
2022/09/23 02:34:31;;;;;;;16.00;10.50;;;;;;;-145.18;100.00;46664.31;6231711;23;20748;-72
2022/09/23 02:37:09;;;;;;;16.17;11.13;;;;;;;-145.18;100.00;46670.16;6242727;22;20681;-73
2022/09/23 02:39:54;;;;;;;16.70;11.80;;;;;;;-145.18;100.00;46664.31;6243181;22;20236;-73
2022/09/23 02:42:24;;;;;;;15.80;11.77;;;;;;;-145.18;100.00;46672.13;6226113;23;20237;-73
2022/09/23 02:44:49;;;;;;;15.60;11.07;;;;;;;-145.18;100.00;46668.22;6243110;22;20672;-73
2022/09/23 02:47:19;;;;;;;16.10;11.40;;;;;;;-145.18;100.00;46660.41;6242334;22;20261;-72
2022/09/23 02:49:44;;;;;;;16.23;11.07;;;;;;;-145.18;100.00;46660.41;6243074;22;20004;-73
2022/09/23 02:52:12;;;;;;;18.30;11.90;;;;;;;-145.18;100.00;46664.31;6242155;23;20905;-73
2022/09/23 02:54:39;;;;;;;15.87;10.80;;;;;;;-145.18;100.00;46656.50;6242842;22;20028;-73
2022/09/23 02:57:07;;;;;;;14.27;10.77;;;;;;;-145.18;100.00;46666.25;6242357;22;20288;-73
2022/09/23 02:59:34;;;;;;;15.10;11.20;;;;;;;-145.18;100.00;46660.41;6215037;23;20229;-72
2022/09/23 03:02:19;;;;;;;17.83;10.90;;;;;;;-145.18;100.00;46660.41;6242080;22;20296;-73
2022/09/23 03:05:02;;;;;;;16.37;10.80;;;;;;;-145.18;100.00;46664.31;6243519;22;20678;-72
2022/09/23 03:08:05;;;;;;;15.20;10.63;;;;;;;-145.18;100.00;46672.13;6242186;23;20217;-72
2022/09/23 03:10:55;;;;;;;13.30;10.17;;;;;;;-145.18;100.00;46672.13;6242736;22;20236;-72
2022/09/23 03:13:49;;;;;;;16.57;9.83;;;;;;;-145.18;100.00;46668.22;6242220;22;20687;-72
2022/09/23 03:16:25;;;;;;;15.07;10.73;;;;;;;-145.18;100.00;46664.31;6242601;22;20696;-73
2022/09/23 03:19:02;;;;;;;14.30;10.02;;;;;;;-145.18;100.00;46662.34;6242349;22;20272;-72
2022/09/23 03:21:34;;;;;;;15.73;9.97;;;;;;;-145.18;100.00;46664.31;6242830;23;20015;-73
2022/09/23 03:24:03;;;;;;;13.17;9.73;;;;;;;-145.18;100.00;46664.31;6242469;22;20264;-73
2022/09/23 03:26:32;;;;;;;14.47;9.77;;;;;;;-145.18;100.00;46660.41;6242830;22;20225;-72
2022/09/23 03:29:03;;;;;;;17.20;10.50;;;;;;;-145.18;100.00;46660.41;6242245;22;20241;-72
2022/09/23 03:31:28;;;;;;;17.03;10.47;;;;;;;-145.18;100.00;46658.44;6242679;22;20729;-73
2022/09/23 03:33:57;;;;;;;14.93;10.50;;;;;;;-145.18;100.00;46666.25;6242630;22;20230;-72
2022/09/23 03:36:52;;;;;;;17.43;11.07;;;;;;;-145.18;100.00;46666.25;6242555;22;20008;-72
2022/09/23 03:39:25;;;;;;;14.40;10.10;;;;;;;-145.18;100.00;46666.25;6242232;22;20332;-72
2022/09/23 03:41:53;;;;;;;17.93;10.60;;;;;;;-145.18;100.00;46652.59;6242849;22;20304;-72
2022/09/23 03:44:19;;;;;;;13.87;10.10;;;;;;;-145.18;100.00;46654.53;6242156;22;20236;-72
2022/09/23 03:46:48;;;;;;;17.23;11.17;;;;;;;-145.18;100.00;46662.34;6243112;22;20228;-73
2022/09/23 03:49:23;;;;;;;17.73;11.50;;;;;;;-145.18;100.00;46660.41;6242074;22;20234;-72
2022/09/23 03:51:49;;;;;;;14.32;11.63;;;;;;;-145.18;100.00;46662.34;6242829;22;20628;-73
2022/09/23 03:54:14;;;;;;;14.90;10.93;;;;;;;-145.18;100.00;46664.31;6242015;22;20004;-73
2022/09/23 03:56:40;;;;;;;18.87;11.47;;;;;;;-145.18;100.00;46670.16;6242764;22;20016;-72
2022/09/23 03:59:06;;;;;;;19.33;11.53;;;;;;;-145.18;100.00;46664.31;6241718;22;20009;-72
2022/09/23 04:01:31;;;;;;;17.73;11.97;;;;;;;-145.18;100.00;46672.13;6241337;23;20012;-72
2022/09/23 04:03:56;;;;;;;18.43;11.73;;;;;;;-145.18;100.00;46668.22;6240441;23;20012;-72
2022/09/23 04:06:22;;;;;;;17.10;11.73;;;;;;;-145.18;100.00;46668.22;6242803;22;20012;-72
2022/09/23 04:08:47;;;;;;;16.63;11.33;;;;;;;-145.18;100.00;46664.31;6242082;23;20019;-72
2022/09/23 04:11:13;;;;;;;17.40;11.10;;;;;;;-145.18;100.00;46672.13;6244117;22;20409;-72
2022/09/23 04:13:39;;;;;;;16.77;11.13;;;;;;;-145.18;100.00;46670.16;6244018;22;20004;-72
2022/09/23 04:16:04;;;;;;;17.90;12.00;;;;;;;-145.18;100.00;46676.03;6244710;23;20019;-72
2022/09/23 04:18:30;;;;;;;17.97;11.97;;;;;;;-145.18;100.00;46672.13;6244116;23;20018;-73
2022/09/23 04:20:57;;;;;;;16.60;11.10;;;;;;;-145.18;100.00;46670.16;6244654;23;20004;-72
2022/09/23 04:23:24;;;;;;;18.63;11.67;;;;;;;-145.18;100.00;46668.22;6244243;22;20016;-72
2022/09/23 04:25:49;;;;;;;17.80;11.83;;;;;;;-145.18;100.00;46672.13;6244352;22;20230;-73
2022/09/23 04:28:15;;;;;;;19.50;11.80;;;;;;;-145.18;100.00;46676.03;6243152;23;20241;-72
2022/09/23 04:30:42;;;;;;;19.60;11.73;;;;;;;-145.18;100.00;46679.94;6242724;22;20054;-73
2022/09/23 04:33:09;;;;;;;16.07;12.07;;;;;;;-145.18;100.00;46676.03;6243457;22;20004;-72
2022/09/23 04:35:36;;;;;;;19.63;11.90;;;;;;;-145.18;100.00;46672.13;6243369;22;20300;-73
2022/09/23 04:38:01;;;;;;;18.37;11.63;;;;;;;-145.18;100.00;46676.03;6242974;22;20609;-73
2022/09/23 04:40:27;;;;;;;20.07;11.83;;;;;;;-145.18;100.00;46674.06;6244051;22;20257;-72
2022/09/23 04:42:52;;;;;;;16.03;12.03;;;;;;;-145.18;100.00;46679.94;6243368;23;20120;-72
2022/09/23 04:45:17;;;;;;;19.60;12.67;;;;;;;-145.18;100.00;46672.13;6243660;23;20318;-73
2022/09/23 04:47:43;;;;;;;18.17;11.80;;;;;;;-145.18;100.00;46674.06;6242944;22;20449;-73
2022/09/23 04:50:08;;;;;;;17.63;11.30;;;;;;;-145.18;100.00;46672.13;6243116;22;20007;-72
2022/09/23 04:52:34;;;;;;;18.83;11.83;;;;;;;-145.18;100.00;46674.06;6243019;23;20012;-73
2022/09/23 04:54:59;;;;;;;16.93;11.53;;;;;;;-145.18;100.00;46674.06;6243363;22;20037;-72
2022/09/23 04:57:25;;;;;;;24.03;12.97;;;;;;;-145.18;100.00;46672.13;6242927;23;20333;-73
2022/09/23 04:59:50;;;;;;;19.97;12.43;;;;;;;-145.18;100.00;46679.94;6242525;23;20004;-72
2022/09/23 05:02:15;;;;;;;16.03;12.17;;;;;;;-145.18;100.00;46676.03;6243402;23;20008;-72
2022/09/23 05:04:41;;;;;;;18.10;12.53;;;;;;;-145.18;100.00;46679.94;6243842;22;20008;-73
2022/09/23 05:07:06;;;;;;;15.83;11.80;;;;;;;-145.18;100.00;46685.78;6243608;23;20012;-72
2022/09/23 05:09:32;;;;;;;16.37;11.37;;;;;;;-145.18;100.00;46674.06;6243787;23;20008;-72
2022/09/23 05:11:57;;;;;;;19.83;11.67;;;;;;;-145.18;100.00;46670.16;6243647;22;20024;-73
2022/09/23 05:14:23;;;;;;;15.47;11.63;;;;;;;-145.18;100.00;46672.13;6242756;23;20091;-73
2022/09/23 05:16:48;;;;;;;18.93;11.90;;;;;;;-145.18;100.00;46672.13;6243222;22;20004;-73
2022/09/23 05:19:14;;;;;;;19.13;12.00;;;;;;;-145.18;100.00;46674.06;6240466;23;20008;-73
2022/09/23 05:21:39;;;;;;;14.20;11.17;;;;;;;-145.18;100.00;46677.97;6242836;22;20046;-73
2022/09/23 05:24:05;;;;;;;16.80;11.07;;;;;;;-145.18;100.00;46679.94;6242210;22;20079;-73
2022/09/23 05:26:31;;;;;;;17.63;11.97;;;;;;;-145.18;100.00;46668.22;6242067;23;20011;-73
2022/09/23 05:28:57;;;;;;;17.37;11.20;;;;;;;-145.18;100.00;46672.13;6243378;22;20000;-73
2022/09/23 05:31:26;;;;;;;16.77;11.17;;;;;;;-145.18;100.00;46676.03;6243291;22;20250;-73
2022/09/23 05:33:54;;;;;;;19.77;11.60;;;;;;;-145.18;100.00;46676.03;6243494;22;20020;-73
2022/09/23 05:36:20;;;;;;;16.57;11.40;;;;;;;-145.18;100.00;46674.06;6243362;22;20237;-73
2022/09/23 05:38:50;;;;;;;21.43;12.23;;;;;;;-145.18;100.00;46676.03;6241716;23;20817;-73
2022/09/23 05:41:17;;;;;;;20.97;12.37;;;;;;;-145.18;100.00;46679.94;6243691;22;20226;-73
2022/09/23 05:43:43;;;;;;;15.87;12.10;;;;;;;-145.18;100.00;46681.88;6243031;22;20663;-73
2022/09/23 05:46:12;;;;;;;18.03;12.07;;;;;;;-145.18;100.00;46668.22;6243204;22;20236;-73
2022/09/23 05:48:39;;;;;;;17.63;12.50;;;;;;;-145.18;100.00;46674.06;6242861;22;20092;-73
2022/09/23 05:51:09;;;;;;;19.17;11.23;;;;;;;-145.18;100.00;46672.13;6242107;22;20241;-73
2022/09/23 05:53:35;;;;;;;15.17;11.50;;;;;;;-145.18;100.00;46668.22;6242533;22;20234;-73
2022/09/23 05:56:01;;;;;;;17.47;12.67;;;;;;;-145.18;100.00;46672.13;6241615;22;20256;-73
2022/09/23 05:58:27;;;;;;;16.10;11.33;;;;;;;-145.18;100.00;46668.22;6241374;22;20305;-73
2022/09/23 06:00:55;;;;;;;19.23;11.73;;;;;;;-145.18;100.00;46676.03;6242353;22;20007;-73
2022/09/23 06:03:22;;;;;;;14.80;11.17;;;;;;;-145.18;100.00;46677.97;6242430;22;20019;-73
2022/09/23 06:05:51;;;;;;;16.70;11.77;;;;;;;-145.18;100.00;46672.13;6242467;22;20240;-73
2022/09/23 06:08:17;;;;;;;19.30;12.67;;;;;;;-145.18;100.00;46670.16;6242247;22;20257;-74
2022/09/23 06:10:45;;;;;;;16.40;11.30;;;;;;;-145.18;100.00;46670.16;6242714;22;20265;-74
2022/09/23 06:13:11;;;;;;;17.07;11.83;;;;;;;-145.18;100.00;46674.06;6241989;22;20111;-73
2022/09/23 06:15:37;;;;;;;16.13;11.97;;;;;;;-145.18;100.00;46674.06;6242981;22;20229;-73
2022/09/23 06:18:04;;;;;;;15.30;12.67;;;;;;;-145.18;100.00;46674.06;6241169;22;20234;-73
2022/09/23 06:20:30;;;;;;;16.73;11.33;;;;;;;-145.18;100.00;46681.88;6241443;22;20690;-73
2022/09/23 06:23:02;;;;;;;16.30;11.87;;;;;;;-145.18;100.00;46679.94;6242875;22;20244;-73
2022/09/23 06:25:27;;;;;;;14.23;11.00;;;;;;;-145.18;100.00;46672.13;6239791;22;20031;-73
2022/09/23 06:27:54;;;;;;;17.17;11.73;;;;;;;-145.18;100.00;46674.06;6241926;23;20238;-73
2022/09/23 06:30:20;;;;;;;15.63;11.20;;;;;;;-145.18;100.00;46674.06;6242711;22;20481;-73
2022/09/23 06:32:57;;;;;;;17.43;12.20;;;;;;;-145.18;100.00;46668.22;6241879;22;20295;-73
2022/09/23 06:35:26;;;;;;;17.73;12.27;;;;;;;-145.18;100.00;46674.06;6242719;22;20226;-73
2022/09/23 06:37:52;;;;;;;17.20;12.13;;;;;;;-145.18;100.00;46672.13;6241994;22;20776;-74
2022/09/23 06:40:18;;;;;;;17.13;12.10;;;;;;;-145.18;100.00;46672.13;6242219;22;20248;-73
2022/09/23 06:42:43;;;;;;;19.00;11.70;;;;;;;-145.18;100.00;46670.16;6242264;22;20234;-74
2022/09/23 06:45:14;;;;;;;17.00;12.23;;;;;;;-145.18;100.00;46674.06;6238511;22;20012;-73
2022/09/23 06:47:43;;;;;;;25.20;12.50;;;;;;;-145.18;100.00;46668.22;6240993;22;20016;-74
2022/09/23 06:50:11;;;;;;;16.63;11.93;;;;;;;-145.18;100.00;46670.16;6240826;22;20225;-74
2022/09/23 06:52:37;;;;;;;17.87;12.47;;;;;;;-145.18;100.00;46672.13;6241497;23;20250;-74
2022/09/23 06:55:02;;;;;;;17.93;12.43;;;;;;;-145.18;100.00;46670.16;6242086;22;20004;-74
2022/09/23 06:57:29;;;;;;;18.07;12.13;;;;;;;-145.18;100.00;46668.22;6242155;23;20081;-74
2022/09/23 06:59:54;;;;;;;18.40;11.90;;;;;;;-145.18;100.00;46670.16;6241342;22;20062;-74
2022/09/23 07:02:19;;;;;;;23.13;12.70;;;;;;;-145.18;100.00;46664.31;6236839;22;20020;-73
2022/09/23 07:04:45;;;;;;;22.90;12.67;;;;;;;-145.18;100.00;46664.31;6239892;23;20125;-73
2022/09/23 07:07:12;;;;;;;18.10;12.87;;;;;;;-145.18;100.00;46664.31;6240307;23;20008;-74
2022/09/23 07:09:38;;;;;;;22.63;12.30;;;;;;;-145.18;100.00;46662.34;6241333;23;20012;-74
2022/09/23 07:12:04;;;;;;;19.00;13.03;;;;;;;-145.18;100.00;46660.41;6238849;23;20342;-74
2022/09/23 07:14:29;;;;;;;19.37;12.53;;;;;;;-145.18;100.00;46662.34;6240706;23;20004;-74
2022/09/23 07:16:54;;;;;;;18.10;12.67;;;;;;;-145.18;100.00;46662.34;6241916;22;20004;-74
2022/09/23 07:19:20;;;;;;;16.80;12.23;;;;;;;-145.18;100.00;46668.22;6240620;23;20027;-74
2022/09/23 07:21:45;;;;;;;17.13;12.80;;;;;;;-145.18;100.00;46660.41;6241106;22;20034;-74
2022/09/23 07:24:10;;;;;;;17.17;12.10;;;;;;;-145.18;100.00;46664.31;6240722;23;20031;-75
2022/09/23 07:26:36;;;;;;;24.00;13.60;;;;;;;-145.18;100.00;46668.22;6241347;23;20066;-74
2022/09/23 07:29:03;;;;;;;17.13;13.30;;;;;;;-145.18;100.00;46668.22;6241140;22;20457;-74
2022/09/23 07:31:30;;;;;;;20.17;12.60;;;;;;;-145.18;100.00;46666.25;6241563;22;20059;-74
2022/09/23 07:33:57;;;;;;;21.50;13.67;;;;;;;-145.18;100.00;46664.31;6240859;22;20012;-74
2022/09/23 07:36:23;;;;;;;22.20;12.53;;;;;;;-145.18;100.00;46662.34;6241051;22;20007;-74
2022/09/23 07:38:49;;;;;;;21.10;13.23;;;;;;;-145.18;100.00;46670.16;6240969;22;20012;-74
2022/09/23 07:41:17;;;;;;;19.93;13.43;;;;;;;-145.18;100.00;46658.44;6241146;22;20013;-74
2022/09/23 07:43:44;;;;;;;23.17;13.97;;;;;;;-145.18;100.00;46652.59;6241459;22;20004;-74
2022/09/23 07:46:14;;;;;;;16.00;13.23;;;;;;;-145.18;100.00;46654.53;6242529;22;20143;-74
2022/09/23 07:48:39;;;;;;;19.67;14.43;;;;;;;-145.18;100.00;46662.34;6242968;22;20008;-75
2022/09/23 07:51:26;;;;;;;22.17;15.43;;;;;;;-145.18;100.00;46656.50;6244170;22;20099;-74
2022/09/23 07:53:53;;;;;;;17.83;14.80;;;;;;;-145.18;100.00;46654.53;6243913;22;20011;-75
2022/09/23 07:56:21;;;;;;;24.90;16.20;;;;;;;-145.18;100.00;46652.59;6244087;22;20008;-74
2022/09/23 07:59:07;;;;;;;19.97;15.60;;;;;;;-145.18;100.00;46640.88;6243514;22;20011;-74
2022/09/23 08:01:38;;;;;;;19.70;14.82;;;;;;;-145.18;100.00;46638.91;6244483;22;20106;-74
2022/09/23 08:04:12;;;;;;;23.77;13.50;;;;;;;-145.18;100.00;46627.19;6243125;22;20023;-74
2022/09/23 08:06:42;;;;;;;18.40;12.60;;;;;;;-145.18;100.00;46599.84;6244139;22;20572;-75
2022/09/23 08:09:08;;;;;;;20.90;12.43;;;;;;;-145.18;100.00;46570.53;6241827;22;20071;-75
2022/09/23 08:11:34;;;;;;;15.97;11.30;;;;;;;-145.18;100.00;46541.25;6242812;22;20036;-74
2022/09/23 08:13:59;;;;;;;16.97;10.67;;;;;;;-145.18;100.00;46529.53;6240654;23;20015;-74
2022/09/23 08:16:24;;;;;;;14.57;9.50;;;;;;;-145.18;100.00;46539.28;6242109;23;20058;-75
2022/09/23 08:18:50;;;;;;;15.43;9.80;;;;;;;-145.18;100.00;46552.97;6240965;22;20310;-74
2022/09/23 08:21:20;;;;;;;16.43;9.63;;;;;;;-145.18;100.00;46552.97;6240601;23;20023;-75
2022/09/23 08:23:46;;;;;;;17.27;9.53;;;;;;;-145.18;100.00;46556.88;6239771;22;20031;-74
2022/09/23 08:26:11;;;;;;;15.27;10.03;;;;;;;-145.18;100.00;46554.91;6240940;22;20004;-76
2022/09/23 08:28:36;;;;;;;15.90;9.50;;;;;;;-145.18;100.00;46547.09;6240841;23;20004;-75
2022/09/23 08:31:02;;;;;;;13.07;10.10;;;;;;;-145.18;100.00;46549.06;6242431;22;20065;-74
2022/09/23 08:33:28;;;;;;;13.33;8.63;;;;;;;-145.18;100.00;46554.91;6241310;22;20008;-75
2022/09/23 08:35:58;;;;;;;15.57;8.83;;;;;;;-145.18;100.00;46560.78;6242443;22;20058;-75
2022/09/23 08:38:24;;;;;;;11.37;8.23;;;;;;;-145.18;100.00;46556.88;6240465;22;20568;-75
2022/09/23 08:40:49;;;;;;;16.53;8.67;;;;;;;-145.18;100.00;46560.78;6242338;22;20358;-75
2022/09/23 08:43:23;;;;;;;11.93;8.00;;;;;;;-145.18;100.00;46566.63;6241461;22;20622;-75
2022/09/23 08:45:50;;;;;;;12.83;8.60;;;;;;;-145.18;100.00;46570.53;6239674;22;20050;-75
2022/09/23 08:48:25;;;;;;;14.93;8.27;;;;;;;-145.18;100.00;46570.53;6238052;22;20066;-75
2022/09/23 08:50:57;;;;;;;9.38;7.50;;;;;;;-145.18;100.00;46574.44;6241707;22;20030;-75
2022/09/23 08:53:33;;;;;;;12.50;7.67;;;;;;;-145.18;100.00;46584.22;6241632;22;20004;-75
2022/09/23 08:56:03;;;;;;;13.37;7.23;;;;;;;-145.18;100.00;46576.41;6241801;22;20030;-75
2022/09/23 08:58:49;;;;;;;13.20;7.53;;;;;;;-145.18;100.00;46586.16;6241098;22;20031;-75
2022/09/23 09:01:27;;;;;;;10.38;7.95;;;;;;;-145.18;100.00;46605.69;6225343;23;20429;-75
2022/09/23 09:04:15;;;;;;;12.30;7.43;;;;;;;-145.18;100.00;46607.66;6240011;23;20448;-75
2022/09/23 09:06:54;;;;;;;12.77;7.47;;;;;;;-145.18;100.00;46609.59;6200613;22;20422;-75
2022/09/23 09:09:38;;;;;;;13.30;7.20;;;;;;;-145.18;100.00;46648.69;6242912;22;20436;-75
2022/09/23 09:12:16;;;;;;;19.53;7.30;;;;;;;-145.18;100.00;46656.50;6244193;22;20065;-74
2022/09/23 09:14:56;;;;;;;13.20;6.97;;;;;;;-145.18;100.00;46629.13;6243225;22;20004;-74
2022/09/23 09:17:45;;;;;;;9.60;6.87;;;;;;;-145.18;100.00;46656.50;6243671;22;20384;-74
2022/09/23 09:20:16;;;;;;;11.13;7.03;;;;;;;-145.18;100.00;46650.63;6242823;22;20507;-74
2022/09/23 09:22:59;;;;;;;13.20;6.57;;;;;;;-145.18;100.00;46668.22;6244222;22;20004;-75
2022/09/23 09:25:34;;;;;;;15.30;7.87;;;;;;;-145.18;100.00;46652.59;6243097;22;20004;-75
2022/09/23 09:27:59;;;;;;;15.00;7.30;;;;;;;-145.18;100.00;46629.13;6243572;22;20031;-75
2022/09/23 09:30:27;;;;;;;15.37;7.03;;;;;;;-145.18;100.00;46666.25;6242977;22;20417;-74
2022/09/23 09:33:06;;;;;;;12.87;7.30;;;;;;;-145.18;100.00;46654.53;6243391;22;20012;-74
2022/09/23 09:35:37;;;;;;;13.10;7.47;;;;;;;-145.18;100.00;46687.75;6242820;22;20019;-74
2022/09/23 09:38:04;;;;;;;10.73;7.17;;;;;;;-145.18;100.00;46691.66;6243824;22;20072;-74
2022/09/23 09:40:31;;;;;;;13.57;7.47;;;;;;;-145.18;100.00;46648.69;6241895;22;19999;-75
2022/09/23 09:42:56;;;;;;;11.80;6.77;;;;;;;-145.18;100.00;46664.31;6243263;22;20007;-74
2022/09/23 09:45:52;;;;;;;11.97;6.63;;;;;;;-145.18;100.00;46812.75;6242967;22;20005;-74
2022/09/23 09:48:27;;;;;;;13.05;6.80;;;;;;;-145.18;100.00;46955.34;6243105;22;20534;-74
2022/09/23 09:50:54;;;;;;;12.93;7.33;;;;;;;-145.18;100.00;47121.41;6243373;22;20004;-75
2022/09/23 09:53:37;;;;;;;10.50;6.60;;;;;;;-145.18;100.00;47289.41;6243431;22;20229;-75
2022/09/23 09:56:03;;;;;;;12.03;6.60;;;;;;;-145.18;100.00;47267.94;6243310;22;20008;-74
2022/09/23 09:58:39;;;;;;;14.80;7.10;;;;;;;-145.18;100.00;47252.31;6243036;22;20011;-75
2022/09/23 10:01:05;;;;;;;13.37;5.97;;;;;;;-145.18;100.00;47221.03;6243381;22;20007;-75
2022/09/23 10:03:42;;;;;;;11.03;4.87;;;;;;;-145.18;100.00;47183.94;6242228;22;20353;-75
2022/09/23 10:06:29;;;;;;;10.97;5.80;;;;;;;-145.18;100.00;47164.38;6242154;22;20119;-75
2022/09/23 10:09:00;;;;;;;8.60;5.77;;;;;;;-145.18;100.00;47156.56;6241207;22;20012;-75
2022/09/23 10:11:27;;;;;;;9.60;6.00;;;;;;;-145.18;100.00;47172.19;6243051;22;20090;-75
2022/09/23 10:14:01;;;;;;;10.73;5.90;;;;;;;-145.18;100.00;47197.59;6242793;22;20008;-75
2022/09/23 10:16:30;;;;;;;9.90;5.90;;;;;;;-145.18;100.00;47185.88;6242876;22;20004;-75
2022/09/23 10:18:59;;;;;;;8.67;5.80;;;;;;;-145.18;100.00;47189.78;6242373;22;20062;-75
2022/09/23 10:21:32;;;;;;;8.70;5.10;;;;;;;-145.18;100.00;47187.84;6243064;22;20376;-75
2022/09/23 10:23:59;;;;;;;10.60;5.60;;;;;;;-145.18;100.00;47193.69;6242981;22;20008;-75
2022/09/23 10:26:53;;;;;;;12.47;5.10;;;;;;;-145.18;100.00;47181.97;6242962;22;20405;-75
2022/09/23 10:29:32;;;;;;;10.33;5.13;;;;;;;-145.18;100.00;47176.09;6242598;22;20384;-75
2022/09/23 10:32:25;;;;;;;15.53;4.60;;;;;;;-145.18;100.00;47174.16;6242292;22;20030;-75
2022/09/23 10:35:07;;;;;;;14.20;4.23;;;;;;;-145.18;100.00;47176.09;6242611;22;20091;-75
2022/09/23 10:37:42;;;;;;;6.73;3.80;;;;;;;-145.18;100.00;47174.16;6242533;22;20046;-75
2022/09/23 10:49:11;;;;;;;8.47;4.20;;;;;;;-145.18;100.00;47180.03;6241651;23;20069;-75
2022/09/23 10:52:02;;;;;;;6.47;3.60;;;;;;;-145.18;100.00;47174.16;6242014;22;20012;-74
2022/09/23 10:54:37;;;;;;;10.90;4.20;;;;;;;-145.18;100.00;47178.06;6241709;22;20429;-75
2022/09/23 10:57:39;;;;;;;9.20;4.18;;;;;;;-145.18;100.00;47172.19;6242391;22;20004;-75
2022/09/23 11:00:21;;;;;;;7.23;4.60;;;;;;;-145.18;100.00;47164.38;6242416;22;20377;-75
2022/09/23 11:02:56;;;;;;;5.67;4.50;;;;;;;-145.18;100.00;47170.25;6241952;22;20016;-75
2022/09/23 11:05:27;;;;;;;11.95;5.28;;;;;;;-145.18;100.00;47174.16;6241634;22;20016;-74
2022/09/23 11:08:26;;;;;;;9.07;4.43;;;;;;;-145.18;100.00;47176.09;6241807;22;20040;-75
2022/09/23 11:11:28;;;;;;;10.30;4.33;;;;;;;-145.18;100.00;47160.47;6242773;22;20011;-74
2022/09/23 11:14:00;;;;;;;7.13;3.90;;;;;;;-145.18;100.00;47148.75;6242063;23;20042;-75
2022/09/23 11:16:44;;;;;;;8.97;4.67;;;;;;;-145.18;100.00;47152.66;6242406;22;20028;-75
2022/09/23 11:19:24;;;;;;;10.23;4.10;;;;;;;-145.18;100.00;47146.81;6240331;22;20027;-74
2022/09/23 11:21:55;;;;;;;7.87;3.90;;;;;;;-145.18;100.00;47152.66;6241535;22;20463;-74
2022/09/23 11:24:39;;;;;;;10.77;4.03;;;;;;;-145.18;100.00;47135.09;6241601;22;19996;-74